sensor_id;sensor_type;location;lat;lon;timestamp;P1;durP1;ratioP1;P2;durP2;ratioP2
16179;SDS011;8196;49.428;10.906;2023-11-21T00:02:26;0.10;;;0.10;;
16179;SDS011;8196;49.428;10.906;2023-11-21T00:04:53;0.10;;;0.10;;
16179;SDS011;8196;49.428;10.906;2023-11-21T00:07:21;0.10;;;0.10;;
16179;SDS011;8196;49.428;10.906;2023-11-21T00:09:48;0.10;;;0.10;;
16179;SDS011;8196;49.428;10.906;2023-11-21T00:12:15;0.05;;;0.05;;
16179;SDS011;8196;49.428;10.906;2023-11-21T00:14:43;0.10;;;0.10;;
16179;SDS011;8196;49.428;10.906;2023-11-21T00:17:10;0.10;;;0.10;;
16179;SDS011;8196;49.428;10.906;2023-11-21T00:19:37;0.10;;;0.10;;
16179;SDS011;8196;49.428;10.906;2023-11-21T00:22:04;0.20;;;0.20;;
16179;SDS011;8196;49.428;10.906;2023-11-21T00:24:33;0.10;;;0.10;;
16179;SDS011;8196;49.428;10.906;2023-11-21T00:27:00;0.10;;;0.10;;
16179;SDS011;8196;49.428;10.906;2023-11-21T00:29:28;0.00;;;0.00;;
16179;SDS011;8196;49.428;10.906;2023-11-21T00:31:55;0.20;;;0.20;;
16179;SDS011;8196;49.428;10.906;2023-11-21T00:34:22;0.00;;;0.00;;
16179;SDS011;8196;49.428;10.906;2023-11-21T00:36:49;0.00;;;0.00;;
16179;SDS011;8196;49.428;10.906;2023-11-21T00:39:16;0.10;;;0.10;;
16179;SDS011;8196;49.428;10.906;2023-11-21T00:41:43;0.10;;;0.10;;
16179;SDS011;8196;49.428;10.906;2023-11-21T00:44:11;0.10;;;0.10;;
16179;SDS011;8196;49.428;10.906;2023-11-21T00:46:38;0.10;;;0.10;;
16179;SDS011;8196;49.428;10.906;2023-11-21T00:49:05;0.10;;;0.10;;
16179;SDS011;8196;49.428;10.906;2023-11-21T00:51:34;0.10;;;0.10;;
16179;SDS011;8196;49.428;10.906;2023-11-21T00:54:02;0.30;;;0.30;;
16179;SDS011;8196;49.428;10.906;2023-11-21T00:56:29;0.10;;;0.10;;
16179;SDS011;8196;49.428;10.906;2023-11-21T00:58:56;0.10;;;0.10;;
16179;SDS011;8196;49.428;10.906;2023-11-21T01:01:24;0.10;;;0.10;;
16179;SDS011;8196;49.428;10.906;2023-11-21T01:03:51;0.20;;;0.20;;
16179;SDS011;8196;49.428;10.906;2023-11-21T01:06:18;0.17;;;0.17;;
16179;SDS011;8196;49.428;10.906;2023-11-21T01:08:46;0.10;;;0.10;;
16179;SDS011;8196;49.428;10.906;2023-11-21T01:11:13;0.10;;;0.10;;
16179;SDS011;8196;49.428;10.906;2023-11-21T01:13:41;0.30;;;0.20;;
16179;SDS011;8196;49.428;10.906;2023-11-21T01:16:08;0.20;;;0.20;;
16179;SDS011;8196;49.428;10.906;2023-11-21T01:18:36;0.00;;;0.00;;
16179;SDS011;8196;49.428;10.906;2023-11-21T01:21:03;0.00;;;0.00;;
16179;SDS011;8196;49.428;10.906;2023-11-21T01:23:31;0.10;;;0.10;;
16179;SDS011;8196;49.428;10.906;2023-11-21T01:25:58;0.00;;;0.00;;
16179;SDS011;8196;49.428;10.906;2023-11-21T01:28:25;0.10;;;0.10;;
16179;SDS011;8196;49.428;10.906;2023-11-21T01:30:52;0.10;;;0.10;;
16179;SDS011;8196;49.428;10.906;2023-11-21T01:33:22;0.10;;;0.10;;
16179;SDS011;8196;49.428;10.906;2023-11-21T01:35:51;0.10;;;0.10;;
16179;SDS011;8196;49.428;10.906;2023-11-21T01:38:21;0.10;;;0.10;;
16179;SDS011;8196;49.428;10.906;2023-11-21T01:40:48;0.10;;;0.10;;
16179;SDS011;8196;49.428;10.906;2023-11-21T01:43:15;0.20;;;0.20;;
16179;SDS011;8196;49.428;10.906;2023-11-21T01:45:43;0.10;;;0.10;;
16179;SDS011;8196;49.428;10.906;2023-11-21T01:48:12;0.10;;;0.10;;
16179;SDS011;8196;49.428;10.906;2023-11-21T01:50:40;0.10;;;0.10;;
16179;SDS011;8196;49.428;10.906;2023-11-21T01:53:08;0.10;;;0.10;;
16179;SDS011;8196;49.428;10.906;2023-11-21T01:55:35;0.08;;;0.08;;
16179;SDS011;8196;49.428;10.906;2023-11-21T01:58:03;0.00;;;0.00;;
16179;SDS011;8196;49.428;10.906;2023-11-21T02:00:30;0.00;;;0.00;;
16179;SDS011;8196;49.428;10.906;2023-11-21T02:02:57;0.00;;;0.00;;
16179;SDS011;8196;49.428;10.906;2023-11-21T02:05:25;0.00;;;0.00;;
16179;SDS011;8196;49.428;10.906;2023-11-21T02:07:53;0.10;;;0.10;;
16179;SDS011;8196;49.428;10.906;2023-11-21T02:10:20;0.10;;;0.10;;
16179;SDS011;8196;49.428;10.906;2023-11-21T02:12:51;0.10;;;0.10;;
16179;SDS011;8196;49.428;10.906;2023-11-21T02:15:18;0.10;;;0.10;;
16179;SDS011;8196;49.428;10.906;2023-11-21T02:17:47;0.20;;;0.20;;
16179;SDS011;8196;49.428;10.906;2023-11-21T02:20:19;0.10;;;0.10;;
16179;SDS011;8196;49.428;10.906;2023-11-21T02:22:48;0.10;;;0.10;;
16179;SDS011;8196;49.428;10.906;2023-11-21T02:25:15;0.10;;;0.10;;
16179;SDS011;8196;49.428;10.906;2023-11-21T02:27:44;0.10;;;0.10;;
16179;SDS011;8196;49.428;10.906;2023-11-21T02:30:14;0.20;;;0.20;;
16179;SDS011;8196;49.428;10.906;2023-11-21T02:32:42;0.10;;;0.10;;
16179;SDS011;8196;49.428;10.906;2023-11-21T02:35:14;0.10;;;0.10;;
16179;SDS011;8196;49.428;10.906;2023-11-21T02:37:42;0.10;;;0.10;;
16179;SDS011;8196;49.428;10.906;2023-11-21T02:40:10;0.10;;;0.10;;
16179;SDS011;8196;49.428;10.906;2023-11-21T02:42:39;0.00;;;0.00;;
16179;SDS011;8196;49.428;10.906;2023-11-21T02:45:07;0.03;;;0.03;;
16179;SDS011;8196;49.428;10.906;2023-11-21T02:47:34;0.00;;;0.00;;
16179;SDS011;8196;49.428;10.906;2023-11-21T02:50:02;0.00;;;0.00;;
16179;SDS011;8196;49.428;10.906;2023-11-21T02:52:29;0.43;;;0.43;;
16179;SDS011;8196;49.428;10.906;2023-11-21T02:54:59;0.10;;;0.10;;
16179;SDS011;8196;49.428;10.906;2023-11-21T02:57:26;0.10;;;0.10;;
16179;SDS011;8196;49.428;10.906;2023-11-21T02:59:53;0.10;;;0.10;;
16179;SDS011;8196;49.428;10.906;2023-11-21T03:02:21;0.10;;;0.10;;
16179;SDS011;8196;49.428;10.906;2023-11-21T03:04:48;0.10;;;0.10;;
16179;SDS011;8196;49.428;10.906;2023-11-21T03:07:16;0.15;;;0.15;;
16179;SDS011;8196;49.428;10.906;2023-11-21T03:09:45;0.20;;;0.20;;
16179;SDS011;8196;49.428;10.906;2023-11-21T03:12:12;0.10;;;0.10;;
16179;SDS011;8196;49.428;10.906;2023-11-21T03:14:40;0.00;;;0.00;;
16179;SDS011;8196;49.428;10.906;2023-11-21T03:17:07;0.00;;;0.00;;
16179;SDS011;8196;49.428;10.906;2023-11-21T03:19:34;0.00;;;0.00;;
16179;SDS011;8196;49.428;10.906;2023-11-21T03:22:01;0.00;;;0.00;;
16179;SDS011;8196;49.428;10.906;2023-11-21T03:24:30;0.00;;;0.00;;
16179;SDS011;8196;49.428;10.906;2023-11-21T03:26:57;0.00;;;0.00;;
16179;SDS011;8196;49.428;10.906;2023-11-21T03:29:25;0.10;;;0.10;;
16179;SDS011;8196;49.428;10.906;2023-11-21T03:31:52;0.10;;;0.10;;
16179;SDS011;8196;49.428;10.906;2023-11-21T03:34:22;0.10;;;0.10;;
16179;SDS011;8196;49.428;10.906;2023-11-21T03:36:50;0.10;;;0.10;;
16179;SDS011;8196;49.428;10.906;2023-11-21T03:39:17;0.10;;;0.10;;
16179;SDS011;8196;49.428;10.906;2023-11-21T03:41:44;0.10;;;0.10;;
16179;SDS011;8196;49.428;10.906;2023-11-21T03:44:11;0.10;;;0.10;;
16179;SDS011;8196;49.428;10.906;2023-11-21T03:46:38;0.20;;;0.20;;
16179;SDS011;8196;49.428;10.906;2023-11-21T03:49:06;0.10;;;0.10;;
16179;SDS011;8196;49.428;10.906;2023-11-21T03:51:33;0.10;;;0.10;;
16179;SDS011;8196;49.428;10.906;2023-11-21T03:54:00;0.00;;;0.00;;
16179;SDS011;8196;49.428;10.906;2023-11-21T03:56:28;0.00;;;0.00;;
16179;SDS011;8196;49.428;10.906;2023-11-21T03:58:55;0.00;;;0.00;;
16179;SDS011;8196;49.428;10.906;2023-11-21T04:01:22;0.10;;;0.10;;
16179;SDS011;8196;49.428;10.906;2023-11-21T04:03:49;0.20;;;0.20;;
16179;SDS011;8196;49.428;10.906;2023-11-21T04:06:17;0.10;;;0.10;;
16179;SDS011;8196;49.428;10.906;2023-11-21T04:08:44;0.10;;;0.10;;
16179;SDS011;8196;49.428;10.906;2023-11-21T04:11:12;0.10;;;0.10;;
16179;SDS011;8196;49.428;10.906;2023-11-21T04:13:40;0.10;;;0.10;;
16179;SDS011;8196;49.428;10.906;2023-11-21T04:16:08;0.25;;;0.25;;
16179;SDS011;8196;49.428;10.906;2023-11-21T04:18:36;0.10;;;0.10;;
16179;SDS011;8196;49.428;10.906;2023-11-21T04:21:04;0.10;;;0.10;;
16179;SDS011;8196;49.428;10.906;2023-11-21T04:23:32;0.10;;;0.10;;
16179;SDS011;8196;49.428;10.906;2023-11-21T04:25:59;0.00;;;0.00;;
16179;SDS011;8196;49.428;10.906;2023-11-21T04:28:28;0.20;;;0.20;;
16179;SDS011;8196;49.428;10.906;2023-11-21T04:30:55;0.15;;;0.15;;
16179;SDS011;8196;49.428;10.906;2023-11-21T04:33:22;0.10;;;0.10;;
16179;SDS011;8196;49.428;10.906;2023-11-21T04:35:50;0.00;;;0.00;;
16179;SDS011;8196;49.428;10.906;2023-11-21T04:38:17;0.08;;;0.08;;
16179;SDS011;8196;49.428;10.906;2023-11-21T04:40:45;0.10;;;0.10;;
16179;SDS011;8196;49.428;10.906;2023-11-21T04:43:12;0.10;;;0.10;;
16179;SDS011;8196;49.428;10.906;2023-11-21T04:45:40;0.10;;;0.10;;
16179;SDS011;8196;49.428;10.906;2023-11-21T04:48:07;0.10;;;0.10;;
16179;SDS011;8196;49.428;10.906;2023-11-21T04:50:34;0.30;;;0.30;;
16179;SDS011;8196;49.428;10.906;2023-11-21T04:53:02;0.20;;;0.20;;
16179;SDS011;8196;49.428;10.906;2023-11-21T04:55:29;0.10;;;0.10;;
16179;SDS011;8196;49.428;10.906;2023-11-21T04:57:56;0.00;;;0.00;;
16179;SDS011;8196;49.428;10.906;2023-11-21T05:00:23;0.00;;;0.00;;
16179;SDS011;8196;49.428;10.906;2023-11-21T05:02:51;0.00;;;0.00;;
16179;SDS011;8196;49.428;10.906;2023-11-21T05:05:19;0.10;;;0.10;;
16179;SDS011;8196;49.428;10.906;2023-11-21T05:07:46;0.08;;;0.08;;
16179;SDS011;8196;49.428;10.906;2023-11-21T05:10:15;0.10;;;0.10;;
16179;SDS011;8196;49.428;10.906;2023-11-21T05:12:42;0.00;;;0.00;;
16179;SDS011;8196;49.428;10.906;2023-11-21T05:15:10;0.10;;;0.10;;
16179;SDS011;8196;49.428;10.906;2023-11-21T05:17:39;0.10;;;0.10;;
16179;SDS011;8196;49.428;10.906;2023-11-21T05:20:11;0.10;;;0.10;;
16179;SDS011;8196;49.428;10.906;2023-11-21T05:22:40;0.20;;;0.20;;
16179;SDS011;8196;49.428;10.906;2023-11-21T05:25:08;0.10;;;0.10;;
16179;SDS011;8196;49.428;10.906;2023-11-21T05:27:37;0.10;;;0.10;;
16179;SDS011;8196;49.428;10.906;2023-11-21T05:30:05;0.15;;;0.15;;
16179;SDS011;8196;49.428;10.906;2023-11-21T05:32:32;0.10;;;0.10;;
16179;SDS011;8196;49.428;10.906;2023-11-21T05:35:00;0.20;;;0.20;;
16179;SDS011;8196;49.428;10.906;2023-11-21T05:37:27;0.30;;;0.30;;
16179;SDS011;8196;49.428;10.906;2023-11-21T05:39:55;0.60;;;0.60;;
16179;SDS011;8196;49.428;10.906;2023-11-21T05:42:23;0.10;;;0.10;;
16179;SDS011;8196;49.428;10.906;2023-11-21T05:44:50;0.20;;;0.20;;
16179;SDS011;8196;49.428;10.906;2023-11-21T05:47:18;0.00;;;0.00;;
16179;SDS011;8196;49.428;10.906;2023-11-21T05:49:45;0.00;;;0.00;;
16179;SDS011;8196;49.428;10.906;2023-11-21T05:52:16;0.00;;;0.00;;
16179;SDS011;8196;49.428;10.906;2023-11-21T05:54:44;0.10;;;0.10;;
16179;SDS011;8196;49.428;10.906;2023-11-21T05:57:12;0.10;;;0.10;;
16179;SDS011;8196;49.428;10.906;2023-11-21T05:59:39;0.10;;;0.10;;
16179;SDS011;8196;49.428;10.906;2023-11-21T06:02:07;0.13;;;0.13;;
16179;SDS011;8196;49.428;10.906;2023-11-21T06:04:34;0.10;;;0.10;;
16179;SDS011;8196;49.428;10.906;2023-11-21T06:07:02;0.10;;;0.10;;
16179;SDS011;8196;49.428;10.906;2023-11-21T06:09:30;0.10;;;0.10;;
16179;SDS011;8196;49.428;10.906;2023-11-21T06:11:57;0.20;;;0.20;;
16179;SDS011;8196;49.428;10.906;2023-11-21T06:14:24;0.17;;;0.17;;
16179;SDS011;8196;49.428;10.906;2023-11-21T06:16:52;0.10;;;0.10;;
16179;SDS011;8196;49.428;10.906;2023-11-21T06:19:19;0.00;;;0.00;;
16179;SDS011;8196;49.428;10.906;2023-11-21T06:21:46;0.00;;;0.00;;
16179;SDS011;8196;49.428;10.906;2023-11-21T06:24:13;0.00;;;0.00;;
16179;SDS011;8196;49.428;10.906;2023-11-21T06:26:41;0.10;;;0.10;;
16179;SDS011;8196;49.428;10.906;2023-11-21T06:29:10;0.10;;;0.10;;
16179;SDS011;8196;49.428;10.906;2023-11-21T06:31:37;0.10;;;0.10;;
16179;SDS011;8196;49.428;10.906;2023-11-21T06:34:06;0.10;;;0.10;;
16179;SDS011;8196;49.428;10.906;2023-11-21T06:36:35;0.10;;;0.10;;
16179;SDS011;8196;49.428;10.906;2023-11-21T06:39:02;0.10;;;0.10;;
16179;SDS011;8196;49.428;10.906;2023-11-21T06:41:34;0.30;;;0.30;;
16179;SDS011;8196;49.428;10.906;2023-11-21T06:44:05;0.10;;;0.10;;
16179;SDS011;8196;49.428;10.906;2023-11-21T06:46:32;0.10;;;0.10;;
16179;SDS011;8196;49.428;10.906;2023-11-21T06:48:59;0.17;;;0.17;;
16179;SDS011;8196;49.428;10.906;2023-11-21T06:51:27;0.10;;;0.10;;
16179;SDS011;8196;49.428;10.906;2023-11-21T06:53:54;0.20;;;0.20;;
16179;SDS011;8196;49.428;10.906;2023-11-21T06:56:21;0.30;;;0.30;;
16179;SDS011;8196;49.428;10.906;2023-11-21T06:58:48;0.20;;;0.20;;
16179;SDS011;8196;49.428;10.906;2023-11-21T07:01:20;0.20;;;0.20;;
16179;SDS011;8196;49.428;10.906;2023-11-21T07:03:47;0.03;;;0.03;;
16179;SDS011;8196;49.428;10.906;2023-11-21T07:06:14;0.20;;;0.20;;
16179;SDS011;8196;49.428;10.906;2023-11-21T07:08:44;0.50;;;0.50;;
16179;SDS011;8196;49.428;10.906;2023-11-21T07:11:11;0.10;;;0.10;;
16179;SDS011;8196;49.428;10.906;2023-11-21T07:13:38;0.10;;;0.10;;
16179;SDS011;8196;49.428;10.906;2023-11-21T07:16:06;0.10;;;0.10;;
16179;SDS011;8196;49.428;10.906;2023-11-21T07:18:33;0.10;;;0.10;;
16179;SDS011;8196;49.428;10.906;2023-11-21T07:21:00;0.40;;;0.40;;
16179;SDS011;8196;49.428;10.906;2023-11-21T07:23:28;0.10;;;0.10;;
16179;SDS011;8196;49.428;10.906;2023-11-21T07:25:55;0.20;;;0.20;;
16179;SDS011;8196;49.428;10.906;2023-11-21T07:28:23;0.20;;;0.20;;
16179;SDS011;8196;49.428;10.906;2023-11-21T07:30:51;0.10;;;0.10;;
16179;SDS011;8196;49.428;10.906;2023-11-21T07:33:19;0.10;;;0.10;;
16179;SDS011;8196;49.428;10.906;2023-11-21T07:35:47;0.10;;;0.10;;
16179;SDS011;8196;49.428;10.906;2023-11-21T07:38:14;0.17;;;0.17;;
16179;SDS011;8196;49.428;10.906;2023-11-21T07:40:41;0.10;;;0.10;;
16179;SDS011;8196;49.428;10.906;2023-11-21T07:43:09;0.10;;;0.10;;
16179;SDS011;8196;49.428;10.906;2023-11-21T07:45:36;0.20;;;0.20;;
16179;SDS011;8196;49.428;10.906;2023-11-21T07:48:04;0.13;;;0.13;;
16179;SDS011;8196;49.428;10.906;2023-11-21T07:50:33;0.17;;;0.17;;
16179;SDS011;8196;49.428;10.906;2023-11-21T07:53:00;0.10;;;0.10;;
16179;SDS011;8196;49.428;10.906;2023-11-21T07:55:27;0.10;;;0.10;;
16179;SDS011;8196;49.428;10.906;2023-11-21T07:57:58;0.20;;;0.20;;
16179;SDS011;8196;49.428;10.906;2023-11-21T08:00:25;0.20;;;0.20;;
16179;SDS011;8196;49.428;10.906;2023-11-21T08:02:56;0.08;;;0.08;;
16179;SDS011;8196;49.428;10.906;2023-11-21T08:05:23;0.10;;;0.10;;
16179;SDS011;8196;49.428;10.906;2023-11-21T08:08:02;0.00;;;0.00;;
16179;SDS011;8196;49.428;10.906;2023-11-21T08:10:29;0.10;;;0.10;;
16179;SDS011;8196;49.428;10.906;2023-11-21T08:12:57;0.10;;;0.10;;
16179;SDS011;8196;49.428;10.906;2023-11-21T08:15:24;0.20;;;0.20;;
16179;SDS011;8196;49.428;10.906;2023-11-21T08:17:51;0.10;;;0.10;;
16179;SDS011;8196;49.428;10.906;2023-11-21T08:20:18;0.30;;;0.30;;
16179;SDS011;8196;49.428;10.906;2023-11-21T08:22:46;0.10;;;0.10;;
16179;SDS011;8196;49.428;10.906;2023-11-21T08:25:14;0.20;;;0.20;;
16179;SDS011;8196;49.428;10.906;2023-11-21T08:27:41;0.10;;;0.10;;
16179;SDS011;8196;49.428;10.906;2023-11-21T08:30:08;0.10;;;0.10;;
16179;SDS011;8196;49.428;10.906;2023-11-21T08:32:38;0.10;;;0.10;;
16179;SDS011;8196;49.428;10.906;2023-11-21T08:35:07;0.03;;;0.03;;
16179;SDS011;8196;49.428;10.906;2023-11-21T08:37:34;0.40;;;0.35;;
16179;SDS011;8196;49.428;10.906;2023-11-21T08:40:05;0.30;;;0.30;;
16179;SDS011;8196;49.428;10.906;2023-11-21T08:42:37;0.13;;;0.13;;
16179;SDS011;8196;49.428;10.906;2023-11-21T08:45:04;0.10;;;0.10;;
16179;SDS011;8196;49.428;10.906;2023-11-21T08:47:32;0.10;;;0.10;;
16179;SDS011;8196;49.428;10.906;2023-11-21T08:49:59;0.30;;;0.30;;
16179;SDS011;8196;49.428;10.906;2023-11-21T08:52:26;0.00;;;0.00;;
16179;SDS011;8196;49.428;10.906;2023-11-21T08:54:55;0.20;;;0.20;;
16179;SDS011;8196;49.428;10.906;2023-11-21T08:57:23;0.17;;;0.17;;
16179;SDS011;8196;49.428;10.906;2023-11-21T08:59:50;0.00;;;0.00;;
16179;SDS011;8196;49.428;10.906;2023-11-21T09:02:22;0.10;;;0.10;;
16179;SDS011;8196;49.428;10.906;2023-11-21T09:04:51;0.20;;;0.20;;
16179;SDS011;8196;49.428;10.906;2023-11-21T09:07:19;0.40;;;0.40;;
16179;SDS011;8196;49.428;10.906;2023-11-21T09:09:47;0.13;;;0.13;;
16179;SDS011;8196;49.428;10.906;2023-11-21T09:12:15;0.10;;;0.10;;
16179;SDS011;8196;49.428;10.906;2023-11-21T09:14:43;0.30;;;0.30;;
16179;SDS011;8196;49.428;10.906;2023-11-21T09:17:10;0.10;;;0.10;;
16179;SDS011;8196;49.428;10.906;2023-11-21T09:19:38;0.20;;;0.20;;
16179;SDS011;8196;49.428;10.906;2023-11-21T09:22:05;0.00;;;0.00;;
16179;SDS011;8196;49.428;10.906;2023-11-21T09:24:33;0.10;;;0.10;;
16179;SDS011;8196;49.428;10.906;2023-11-21T09:27:03;0.15;;;0.15;;
16179;SDS011;8196;49.428;10.906;2023-11-21T09:29:31;0.10;;;0.10;;
16179;SDS011;8196;49.428;10.906;2023-11-21T09:31:58;0.20;;;0.20;;
16179;SDS011;8196;49.428;10.906;2023-11-21T09:34:26;0.10;;;0.10;;
16179;SDS011;8196;49.428;10.906;2023-11-21T09:36:53;0.10;;;0.10;;
16179;SDS011;8196;49.428;10.906;2023-11-21T09:39:20;0.08;;;0.08;;
16179;SDS011;8196;49.428;10.906;2023-11-21T09:41:49;0.00;;;0.00;;
16179;SDS011;8196;49.428;10.906;2023-11-21T09:44:17;0.22;;;0.15;;
16179;SDS011;8196;49.428;10.906;2023-11-21T09:46:47;0.20;;;0.20;;
16179;SDS011;8196;49.428;10.906;2023-11-21T09:49:17;0.10;;;0.10;;
16179;SDS011;8196;49.428;10.906;2023-11-21T09:51:45;0.10;;;0.10;;
16179;SDS011;8196;49.428;10.906;2023-11-21T09:54:13;0.10;;;0.10;;
16179;SDS011;8196;49.428;10.906;2023-11-21T09:56:42;0.20;;;0.20;;
16179;SDS011;8196;49.428;10.906;2023-11-21T09:59:11;0.35;;;0.35;;
16179;SDS011;8196;49.428;10.906;2023-11-21T10:01:40;0.20;;;0.20;;
16179;SDS011;8196;49.428;10.906;2023-11-21T10:04:08;0.20;;;0.20;;
16179;SDS011;8196;49.428;10.906;2023-11-21T10:06:39;0.40;;;0.40;;
16179;SDS011;8196;49.428;10.906;2023-11-21T10:09:11;0.10;;;0.10;;
16179;SDS011;8196;49.428;10.906;2023-11-21T10:11:42;0.30;;;0.30;;
16179;SDS011;8196;49.428;10.906;2023-11-21T10:14:10;0.10;;;0.10;;
16179;SDS011;8196;49.428;10.906;2023-11-21T10:16:38;0.20;;;0.20;;
16179;SDS011;8196;49.428;10.906;2023-11-21T10:19:09;0.10;;;0.10;;
16179;SDS011;8196;49.428;10.906;2023-11-21T10:21:38;0.00;;;0.00;;
16179;SDS011;8196;49.428;10.906;2023-11-21T10:24:06;0.25;;;0.25;;
16179;SDS011;8196;49.428;10.906;2023-11-21T10:26:33;0.40;;;0.40;;
16179;SDS011;8196;49.428;10.906;2023-11-21T10:29:16;0.10;;;0.10;;
16179;SDS011;8196;49.428;10.906;2023-11-21T10:31:44;0.00;;;0.00;;
16179;SDS011;8196;49.428;10.906;2023-11-21T10:34:12;0.25;;;0.25;;
16179;SDS011;8196;49.428;10.906;2023-11-21T10:36:40;0.30;;;0.30;;
16179;SDS011;8196;49.428;10.906;2023-11-21T10:39:07;0.10;;;0.10;;
16179;SDS011;8196;49.428;10.906;2023-11-21T10:41:35;0.10;;;0.10;;
16179;SDS011;8196;49.428;10.906;2023-11-21T10:44:03;0.20;;;0.20;;
16179;SDS011;8196;49.428;10.906;2023-11-21T10:46:32;0.10;;;0.10;;
16179;SDS011;8196;49.428;10.906;2023-11-21T10:49:00;0.20;;;0.20;;
16179;SDS011;8196;49.428;10.906;2023-11-21T10:51:28;0.20;;;0.20;;
16179;SDS011;8196;49.428;10.906;2023-11-21T10:53:55;0.10;;;0.10;;
16179;SDS011;8196;49.428;10.906;2023-11-21T10:56:23;0.20;;;0.20;;
16179;SDS011;8196;49.428;10.906;2023-11-21T10:58:50;0.35;;;0.35;;
16179;SDS011;8196;49.428;10.906;2023-11-21T11:01:18;0.10;;;0.10;;
16179;SDS011;8196;49.428;10.906;2023-11-21T11:03:50;0.10;;;0.10;;
16179;SDS011;8196;49.428;10.906;2023-11-21T11:06:17;0.23;;;0.23;;
16179;SDS011;8196;49.428;10.906;2023-11-21T11:08:44;0.20;;;0.20;;
16179;SDS011;8196;49.428;10.906;2023-11-21T11:11:11;0.20;;;0.20;;
16179;SDS011;8196;49.428;10.906;2023-11-21T11:13:43;0.20;;;0.20;;
16179;SDS011;8196;49.428;10.906;2023-11-21T11:16:12;0.20;;;0.20;;
16179;SDS011;8196;49.428;10.906;2023-11-21T11:18:43;0.10;;;0.10;;
16179;SDS011;8196;49.428;10.906;2023-11-21T11:21:21;0.00;;;0.00;;
16179;SDS011;8196;49.428;10.906;2023-11-21T11:28:47;0.20;;;0.20;;
16179;SDS011;8196;49.428;10.906;2023-11-21T11:31:33;1.60;;;0.40;;
16179;SDS011;8196;49.428;10.906;2023-11-21T11:34:16;0.20;;;0.20;;
16179;SDS011;8196;49.428;10.906;2023-11-21T11:36:48;0.10;;;0.10;;
16179;SDS011;8196;49.428;10.906;2023-11-21T11:42:03;0.10;;;0.10;;
16179;SDS011;8196;49.428;10.906;2023-11-21T11:44:47;0.10;;;0.10;;
16179;SDS011;8196;49.428;10.906;2023-11-21T11:47:20;0.20;;;0.20;;
16179;SDS011;8196;49.428;10.906;2023-11-21T11:52:52;0.30;;;0.30;;
16179;SDS011;8196;49.428;10.906;2023-11-21T11:55:21;0.10;;;0.10;;
16179;SDS011;8196;49.428;10.906;2023-11-21T11:57:51;0.30;;;0.30;;
16179;SDS011;8196;49.428;10.906;2023-11-21T12:00:19;0.00;;;0.00;;
16179;SDS011;8196;49.428;10.906;2023-11-21T12:02:48;0.13;;;0.13;;
16179;SDS011;8196;49.428;10.906;2023-11-21T12:05:18;0.32;;;0.32;;
16179;SDS011;8196;49.428;10.906;2023-11-21T12:07:47;0.10;;;0.10;;
16179;SDS011;8196;49.428;10.906;2023-11-21T12:10:15;0.05;;;0.05;;
16179;SDS011;8196;49.428;10.906;2023-11-21T12:12:46;0.05;;;0.05;;
16179;SDS011;8196;49.428;10.906;2023-11-21T12:15:13;0.30;;;0.30;;
16179;SDS011;8196;49.428;10.906;2023-11-21T12:17:41;0.22;;;0.22;;
16179;SDS011;8196;49.428;10.906;2023-11-21T12:20:10;0.10;;;0.10;;
16179;SDS011;8196;49.428;10.906;2023-11-21T12:25:10;0.10;;;0.10;;
16179;SDS011;8196;49.428;10.906;2023-11-21T12:27:42;0.13;;;0.13;;
16179;SDS011;8196;49.428;10.906;2023-11-21T12:30:12;0.40;;;0.40;;
16179;SDS011;8196;49.428;10.906;2023-11-21T12:32:40;0.20;;;0.20;;
16179;SDS011;8196;49.428;10.906;2023-11-21T12:35:09;0.10;;;0.10;;
16179;SDS011;8196;49.428;10.906;2023-11-21T12:37:37;0.05;;;0.05;;
16179;SDS011;8196;49.428;10.906;2023-11-21T12:40:06;0.20;;;0.20;;
16179;SDS011;8196;49.428;10.906;2023-11-21T12:42:39;0.10;;;0.10;;
16179;SDS011;8196;49.428;10.906;2023-11-21T12:45:10;0.10;;;0.10;;
16179;SDS011;8196;49.428;10.906;2023-11-21T12:47:47;0.20;;;0.20;;
16179;SDS011;8196;49.428;10.906;2023-11-21T12:50:18;0.20;;;0.20;;
16179;SDS011;8196;49.428;10.906;2023-11-21T12:52:47;0.30;;;0.30;;
16179;SDS011;8196;49.428;10.906;2023-11-21T12:55:16;0.00;;;0.00;;
16179;SDS011;8196;49.428;10.906;2023-11-21T12:57:44;0.20;;;0.20;;
16179;SDS011;8196;49.428;10.906;2023-11-21T13:00:12;0.20;;;0.20;;
16179;SDS011;8196;49.428;10.906;2023-11-21T13:02:51;0.10;;;0.10;;
16179;SDS011;8196;49.428;10.906;2023-11-21T13:05:24;0.10;;;0.10;;
16179;SDS011;8196;49.428;10.906;2023-11-21T13:07:53;0.30;;;0.30;;
16179;SDS011;8196;49.428;10.906;2023-11-21T13:10:22;0.20;;;0.20;;
16179;SDS011;8196;49.428;10.906;2023-11-21T13:12:52;0.20;;;0.20;;
16179;SDS011;8196;49.428;10.906;2023-11-21T13:15:20;0.20;;;0.20;;
16179;SDS011;8196;49.428;10.906;2023-11-21T13:17:47;0.20;;;0.20;;
16179;SDS011;8196;49.428;10.906;2023-11-21T13:20:14;0.40;;;0.40;;
16179;SDS011;8196;49.428;10.906;2023-11-21T13:22:49;0.20;;;0.20;;
16179;SDS011;8196;49.428;10.906;2023-11-21T13:25:21;0.10;;;0.10;;
16179;SDS011;8196;49.428;10.906;2023-11-21T13:27:50;0.13;;;0.13;;
16179;SDS011;8196;49.428;10.906;2023-11-21T13:30:17;0.20;;;0.20;;
16179;SDS011;8196;49.428;10.906;2023-11-21T13:32:53;0.10;;;0.10;;
16179;SDS011;8196;49.428;10.906;2023-11-21T13:35:23;0.30;;;0.30;;
16179;SDS011;8196;49.428;10.906;2023-11-21T13:38:05;0.35;;;0.35;;
16179;SDS011;8196;49.428;10.906;2023-11-21T13:40:33;0.15;;;0.15;;
16179;SDS011;8196;49.428;10.906;2023-11-21T13:43:06;0.40;;;0.40;;
16179;SDS011;8196;49.428;10.906;2023-11-21T13:45:36;0.25;;;0.25;;
16179;SDS011;8196;49.428;10.906;2023-11-21T13:48:06;0.20;;;0.20;;
16179;SDS011;8196;49.428;10.906;2023-11-21T13:50:37;0.60;;;0.50;;
16179;SDS011;8196;49.428;10.906;2023-11-21T13:53:04;0.00;;;0.00;;
16179;SDS011;8196;49.428;10.906;2023-11-21T13:55:42;0.60;;;0.60;;
16179;SDS011;8196;49.428;10.906;2023-11-21T13:58:09;0.20;;;0.20;;
16179;SDS011;8196;49.428;10.906;2023-11-21T14:00:42;0.30;;;0.30;;
16179;SDS011;8196;49.428;10.906;2023-11-21T14:03:12;0.10;;;0.10;;
16179;SDS011;8196;49.428;10.906;2023-11-21T14:05:47;0.38;;;0.38;;
16179;SDS011;8196;49.428;10.906;2023-11-21T14:08:18;0.50;;;0.50;;
16179;SDS011;8196;49.428;10.906;2023-11-21T14:10:47;1.70;;;0.70;;
16179;SDS011;8196;49.428;10.906;2023-11-21T14:13:19;0.30;;;0.30;;
16179;SDS011;8196;49.428;10.906;2023-11-21T14:15:49;0.30;;;0.30;;
16179;SDS011;8196;49.428;10.906;2023-11-21T14:18:18;0.20;;;0.20;;
16179;SDS011;8196;49.428;10.906;2023-11-21T14:20:52;0.30;;;0.30;;
16179;SDS011;8196;49.428;10.906;2023-11-21T14:23:19;0.20;;;0.20;;
16179;SDS011;8196;49.428;10.906;2023-11-21T14:25:49;2.20;;;1.05;;
16179;SDS011;8196;49.428;10.906;2023-11-21T14:28:18;0.20;;;0.20;;
16179;SDS011;8196;49.428;10.906;2023-11-21T14:30:46;0.10;;;0.10;;
16179;SDS011;8196;49.428;10.906;2023-11-21T14:33:13;0.10;;;0.10;;
16179;SDS011;8196;49.428;10.906;2023-11-21T14:35:42;0.22;;;0.22;;
16179;SDS011;8196;49.428;10.906;2023-11-21T14:38:11;0.38;;;0.38;;
16179;SDS011;8196;49.428;10.906;2023-11-21T14:40:40;1.20;;;0.50;;
16179;SDS011;8196;49.428;10.906;2023-11-21T14:43:07;0.22;;;0.13;;
16179;SDS011;8196;49.428;10.906;2023-11-21T14:45:34;0.67;;;0.67;;
16179;SDS011;8196;49.428;10.906;2023-11-21T14:48:01;0.22;;;0.22;;
16179;SDS011;8196;49.428;10.906;2023-11-21T14:50:34;0.90;;;0.70;;
16179;SDS011;8196;49.428;10.906;2023-11-21T14:53:15;2.40;;;2.20;;
16179;SDS011;8196;49.428;10.906;2023-11-21T14:55:51;1.95;;;1.77;;
16179;SDS011;8196;49.428;10.906;2023-11-21T14:58:23;0.70;;;0.70;;
16179;SDS011;8196;49.428;10.906;2023-11-21T15:00:54;1.58;;;1.13;;
16179;SDS011;8196;49.428;10.906;2023-11-21T15:03:24;4.47;;;3.78;;
16179;SDS011;8196;49.428;10.906;2023-11-21T15:06:00;5.13;;;3.65;;
16179;SDS011;8196;49.428;10.906;2023-11-21T15:08:48;4.93;;;3.70;;
16179;SDS011;8196;49.428;10.906;2023-11-21T15:11:21;1.38;;;1.27;;